Wootton, United Kingdom
Current Conditions -  °F | °C
As of 6:20 AM on Wednesday 28 Jan 2015 (Local Time) from EGGW Reporting Station
Drizzle Drizzle  
Wind Chill: 37°   Ceiling: 500
Heat Index: 45°   Visibility: 3mi
Dew Point: 43°   Wind: 17mph
Humidity: 93%   Direction: 210°SSW
Pressure: 29.74"   Gusts: NA
Location:  52.1°N, 0.53°W
Report Text: EGGW 280620Z 21015KT 5000 -DZ OVC005 07/06 Q1007
Loading
Personal Weather Stations






























Interactive Weather Map New forecast layout! Learn more

10-Day Weather Forecast

Advertisements
Track Severe Weather on mobile